Aviation Digital Data Service (ADDS)

Output produced by METARs form (0242 UTC 24 July 2017)
found at http://www.aviationweather.gov/adds/metars/
 
UATE 240230Z 29006MPS 260V350 CAVOK 25/20 Q1009 R30/0///70 NOSIG RMK QFE755/1007
TAF UATE 232302Z 2400/2424 32008MPS 9999 SCT033CB TX33/2409Z TN22/2402Z 
     PROB40 
     TEMPO 2400/2404 -TSRA 
     TEMPO 2405/2407 30007G12MPS 
     BECMG 2412/2414 28006MPS
       
UATT 240230Z 06002MPS CAVOK 21/12 Q1007 R13/70D NOSIG RMK QFE736/0981
TAF UATT 232300Z 2400/2424 36005MPS 9999 SCT050CB TX28/2409Z TN17/2400Z 
     TEMPO 2400/2404 5000 FU 
     TEMPO 2404/2424 VRB14MPS 3000 -TSRA BKN015CB
       
UAAA 240230Z 23002MPS 150V290 9999 FEW100 SCT200 26/11 Q1009 R05L/CLRD65 NOSIG
TAF UAAA 232300Z 2400/2424 18005MPS 9999 SCT050CB BKN100 TX34/2409Z TN17/2401Z 
     BECMG 2403/2404 04006MPS 
     PROB40 
     TEMPO 2408/2415 TS 
     BECMG 2415/2416 16005MPS
       
UAAA 240230Z 23002MPS 150V290 9999 FEW100 SCT200 26/11 Q1009 R05L/CLRD65 NOSIG
TAF UAAA 232300Z 2400/2424 18005MPS 9999 SCT050CB BKN100 TX34/2409Z TN17/2401Z 
     BECMG 2403/2404 04006MPS 
     PROB40 
     TEMPO 2408/2415 TS 
     BECMG 2415/2416 16005MPS
       
UAAH 240230Z 11003MPS 070V160 CAVOK 26/10 Q1010 R05/0///60 NOSIG RMK QFE721/0961
TAF AMD UAAH 240124Z 2401/2409 06005MPS CAVOK
       
UACC 240230Z 22007MPS CAVOK 26/10 Q1003 R22/0///70 NOSIG RMK QFE721/0962
TAF AMD UACC 240112Z 2401/2424 23006MPS 9999 SCT030CB BKN100 TX33/2410Z TN20/2423Z 
     BECMG 2406/2408 34006MPS 
     TEMPO 2406/2417 VRB15MPS 3000 TSRA SQ BKN020CB
       
UACK 240230Z 34005MPS 320V020 CAVOK 19/15 Q1005 NOSIG RMK QFE730/0974
UACP 240230Z 29004MPS CAVOK 18/16 Q1004 R23/0/0060 NOSIG RMK QFE741/0988
UADD 240230Z 22004MPS 9999 NSC 25/11 Q1008 R13/0///65 NOSIG RMK QFE700/0933
TAF UADD 232300Z 2400/2409 20005G10MPS 9999 NSC
       
UAII 240230Z 00000MPS CAVOK 28/11 Q1005 R10/0///70 NOSIG RMK QFE719/0959
TAF UAII 232300Z 2400/2424 07005G10MPS CAVOK TX38/2409Z TN22/2401Z 
     TEMPO 2402/2413 02010G15MPS
       
UAKK 240230Z 20009MPS CAVOK 26/10 Q1007 R23/0///70 NOSIG RMK QFE709/0946
TAF UAKK 232300Z 2400/2424 22009MPS 9999 SCT030 BKN100 TX32/2410Z TN10/2423Z 
     TEMPO 2403/2415 25013MPS -SHRA SCT030CB 
     BECMG 2416/2418 07006MPS
       
UAOO 240230Z 21002MPS 180V250 CAVOK 30/09 Q1007 R05/CLRD70 NOSIG RMK QFE743/0991
TAF UAOO 232300Z 2400/2409 VRB02MPS CAVOK TX40/0800Z 
     TEMPO 2400/2406 22004MPS
       
UARR 240230Z 17002MPS 130V300 9999 SCT050CB OVC110 20/18 Q1008 R22/190165 NOSIG RMK QFE753/1004
TAF UARR 232301Z 2400/2409 32005MPS 9999 SCT030CB BKN100 
     TEMPO 2400/2403 -SHRA BKN030CB
       
UASK 240230Z 15002MPS 070V200 9999 NSC 20/14 Q1011 R12/090060 NOSIG RMK QFE733/0978
TAF UASK 232304Z 2400/2409 12005G10MPS 9999 SCT033 SCT100 
     TEMPO 2400/2403 3000 BR FEW007
       
UASP 240230Z 15003MPS 9999 -SHRA SCT040CB BKN130 21/16 Q1007 R21/0///70 NOSIG RMK QFE744/0992
TAF UASP 232300Z 2400/2409 15003MPS 9999 BKN020CB 
     TEMPO 2400/2408 VRB15MPS 3000 -TSRA FU SQ SCT006
       
UASS 240230Z 00000MPS CAVOK 23/14 Q1010 NOSIG RMK QFE739/0986
TAF UASS 240103Z 2402/2409 VRB02MPS 9999 SCT030 BKN100 
     TEMPO 2402/2408 15005G10MPS 5000 -TSRA BKN030CB
       
UATE 240230Z 29006MPS 260V350 CAVOK 25/20 Q1009 R30/0///70 NOSIG RMK QFE755/1007
TAF UATE 232302Z 2400/2424 32008MPS 9999 SCT033CB TX33/2409Z TN22/2402Z 
     PROB40 
     TEMPO 2400/2404 -TSRA 
     TEMPO 2405/2407 30007G12MPS 
     BECMG 2412/2414 28006MPS
       
UATG 240230Z 25004MPS 6000 SCT033CB 25/19 Q1002 R14/CLRD70 NOSIG RMK QFE754/1005
TAF UATG 232303Z 2400/2424 VRB02MPS 9999 SCT033CB TX36/2412Z TN24/2401Z 
     BECMG 2400/2402 3000 BR 
     BECMG 2403/2404 34007MPS 9999 NSW
       
UATT 240230Z 06002MPS CAVOK 21/12 Q1007 R13/70D NOSIG RMK QFE736/0981
TAF UATT 232300Z 2400/2424 36005MPS 9999 SCT050CB TX28/2409Z TN17/2400Z 
     TEMPO 2400/2404 5000 FU 
     TEMPO 2404/2424 VRB14MPS 3000 -TSRA BKN015CB
       
UAUU 240230Z 33003MPS CAVOK 18/15 Q1008 R33/CLRD70 NOSIG RMK QFE741/0988
TAF UAUU 232300Z 2400/2409 31005MPS 9999 SCT020CB 
     TEMPO 2400/2402 2000 BR SCT006 SCT020CB 
     TEMPO 2404/2409 28009MPS BKN020CB
       
UACC 240230Z 22007MPS CAVOK 26/10 Q1003 R22/0///70 NOSIG RMK QFE721/0962
TAF AMD UACC 240112Z 2401/2424 23006MPS 9999 SCT030CB BKN100 TX33/2410Z TN20/2423Z 
     BECMG 2406/2408 34006MPS 
     TEMPO 2406/2417 VRB15MPS 3000 TSRA SQ BKN020CB
       
UATG 240230Z 25004MPS 6000 SCT033CB 25/19 Q1002 R14/CLRD70 NOSIG RMK QFE754/1005
TAF UATG 232303Z 2400/2424 VRB02MPS 9999 SCT033CB TX36/2412Z TN24/2401Z 
     BECMG 2400/2402 3000 BR 
     BECMG 2403/2404 34007MPS 9999 NSW
       
UAAH 240230Z 11003MPS 070V160 CAVOK 26/10 Q1010 R05/0///60 NOSIG RMK QFE721/0961
TAF AMD UAAH 240124Z 2401/2409 06005MPS CAVOK
       
UAKK 240230Z 20009MPS CAVOK 26/10 Q1007 R23/0///70 NOSIG RMK QFE709/0946
TAF UAKK 232300Z 2400/2424 22009MPS 9999 SCT030 BKN100 TX32/2410Z TN10/2423Z 
     TEMPO 2403/2415 25013MPS -SHRA SCT030CB 
     BECMG 2416/2418 07006MPS
       
UAUU 240230Z 33003MPS CAVOK 18/15 Q1008 R33/CLRD70 NOSIG RMK QFE741/0988
TAF UAUU 232300Z 2400/2409 31005MPS 9999 SCT020CB 
     TEMPO 2400/2402 2000 BR SCT006 SCT020CB 
     TEMPO 2404/2409 28009MPS BKN020CB
       
UASS 240230Z 00000MPS CAVOK 23/14 Q1010 NOSIG RMK QFE739/0986
TAF UASS 240103Z 2402/2409 VRB02MPS 9999 SCT030 BKN100 
     TEMPO 2402/2408 15005G10MPS 5000 -TSRA BKN030CB
       
UAII 240230Z 00000MPS CAVOK 28/11 Q1005 R10/0///70 NOSIG RMK QFE719/0959
TAF UAII 232300Z 2400/2424 07005G10MPS CAVOK TX38/2409Z TN22/2401Z 
     TEMPO 2402/2413 02010G15MPS
       
UARR 240230Z 17002MPS 130V300 9999 SCT050CB OVC110 20/18 Q1008 R22/190165 NOSIG RMK QFE753/1004
TAF UARR 232301Z 2400/2409 32005MPS 9999 SCT030CB BKN100 
     TEMPO 2400/2403 -SHRA BKN030CB
       
UASK 240230Z 15002MPS 070V200 9999 NSC 20/14 Q1011 R12/090060 NOSIG RMK QFE733/0978
TAF UASK 232304Z 2400/2409 12005G10MPS 9999 SCT033 SCT100 
     TEMPO 2400/2403 3000 BR FEW007